Time;durP1;ratioP1;P1;durP2;ratioP2;P2;SDS_P1;SDS_P2;PMS_P1;PMS_P2;Temp;Humidity;BMP_temperature;BMP_pressure;BME280_temperature;BME280_humidity;BME280_pressure;Samples;Min_cycle;Max_cycle;Signal;HPM_P1;HPM_P2
2021/03/05 00:00:55;;;;;;;53.15;36.15;;;;;;;3.39;78.42;98802.13;1774568;80;21109;-63
2021/03/05 00:03:23;;;;;;;49.70;34.80;;;;;;;3.40;78.35;98794.80;1774581;80;21108;-63
2021/03/05 00:05:52;;;;;;;48.13;32.65;;;;;;;3.41;78.28;98799.49;1774496;80;21185;-64
2021/03/05 00:08:19;;;;;;;51.02;35.28;;;;;;;3.40;78.24;98795.23;1746873;80;21475;-63
2021/03/05 00:10:49;;;;;;;52.62;35.25;;;;;;;3.39;78.26;98803.86;1774467;80;21069;-63
2021/03/05 00:13:19;;;;;;;56.95;37.35;;;;;;;3.39;78.37;98811.56;1774576;80;21049;-63
2021/03/05 00:15:47;;;;;;;56.48;37.30;;;;;;;3.37;78.39;98824.45;1774571;80;21486;-63
2021/03/05 00:18:15;;;;;;;55.40;37.42;;;;;;;3.37;78.38;98815.45;1774558;80;21113;-63
2021/03/05 00:20:47;;;;;;;53.28;35.95;;;;;;;3.36;78.37;98815.05;1774561;80;21384;-63
2021/03/05 00:23:14;;;;;;;53.90;35.70;;;;;;;3.35;78.36;98809.94;1774604;80;21532;-63
2021/03/05 00:25:43;;;;;;;54.67;35.23;;;;;;;3.35;78.37;98821.51;1774498;80;21144;-63
2021/03/05 00:28:11;;;;;;;51.00;35.88;;;;;;;3.35;78.39;98821.51;1777400;80;21564;-63
2021/03/05 00:30:38;;;;;;;52.38;36.00;;;;;;;3.35;78.47;98828.78;1777878;80;21053;-63
2021/03/05 00:33:07;;;;;;;47.17;35.83;;;;;;;3.38;78.50;98830.00;1777807;80;21382;-63
2021/03/05 00:35:37;;;;;;;55.48;36.95;;;;;;;3.37;78.42;98832.16;1774923;80;21098;-63
2021/03/05 00:38:05;;;;;;;49.23;35.08;;;;;;;3.31;78.40;98827.16;1777844;80;21050;-63
2021/03/05 00:40:33;;;;;;;46.83;33.50;;;;;;;3.27;78.51;98832.39;1777811;80;21145;-63
2021/03/05 00:43:02;;;;;;;51.83;33.50;;;;;;;3.23;78.61;98835.45;1777819;80;21160;-63
2021/03/05 00:45:30;;;;;;;48.65;33.55;;;;;;;3.22;78.71;98829.06;1777810;80;22400;-64
2021/03/05 00:47:58;;;;;;;50.92;35.58;;;;;;;3.22;78.79;98825.21;1777935;80;21069;-63
2021/03/05 00:50:26;;;;;;;53.50;35.63;;;;;;;3.20;78.90;98822.67;1777986;80;21057;-64
2021/03/05 00:52:54;;;;;;;53.75;36.20;;;;;;;3.22;78.97;98826.49;1778007;80;21113;-63
2021/03/05 00:55:23;;;;;;;54.38;36.85;;;;;;;3.24;78.95;98823.02;1777982;80;21137;-63
2021/03/05 00:57:52;;;;;;;53.25;36.88;;;;;;;3.26;78.89;98821.70;1778063;80;22297;-63
2021/03/05 01:00:23;;;;;;;56.18;36.00;;;;;;;3.26;78.81;98819.97;1777970;80;21105;-63
2021/03/05 01:02:51;;;;;;;50.60;34.45;;;;;;;3.26;78.80;98820.41;1777996;80;21156;-63
2021/03/05 01:05:19;;;;;;;50.48;35.43;;;;;;;3.24;78.81;98815.75;1777943;80;22039;-63
2021/03/05 01:07:47;;;;;;;52.80;35.85;;;;;;;3.23;78.96;98810.20;1778144;80;21053;-63
2021/03/05 01:10:16;;;;;;;53.48;37.10;;;;;;;3.26;79.03;98811.42;1777768;80;21587;-64
2021/03/05 01:12:45;;;;;;;59.42;37.23;;;;;;;3.30;79.02;98810.03;1777927;80;21124;-63
2021/03/05 01:15:13;;;;;;;52.90;35.63;;;;;;;3.35;78.90;98809.50;1777991;80;21100;-63
2021/03/05 01:17:41;;;;;;;51.15;36.30;;;;;;;3.37;78.75;98810.31;1777973;80;21184;-63
2021/03/05 01:20:14;;;;;;;52.93;34.92;;;;;;;3.39;78.64;98820.13;1778023;80;21069;-63
2021/03/05 01:22:42;;;;;;;53.28;34.27;;;;;;;3.39;78.58;98813.70;1755380;81;21570;-63
2021/03/05 01:25:14;;;;;;;55.25;36.80;;;;;;;3.40;78.51;98810.66;1756134;81;21078;-63
2021/03/05 01:27:41;;;;;;;52.17;35.33;;;;;;;3.38;78.51;98813.29;1748149;81;21138;-63
2021/03/05 01:30:12;;;;;;;50.90;35.28;;;;;;;3.37;78.47;98809.03;1741352;82;21165;-63
2021/03/05 01:32:40;;;;;;;51.85;34.33;;;;;;;3.33;78.43;98803.55;1741408;82;21428;-63
2021/03/05 01:35:12;;;;;;;51.98;35.20;;;;;;;3.26;78.62;98806.28;1741350;82;21339;-63
2021/03/05 01:37:40;;;;;;;53.35;35.30;;;;;;;3.18;78.75;98809.04;1740738;82;21783;-63
2021/03/05 01:40:16;;;;;;;49.30;34.67;;;;;;;3.15;78.93;98809.55;1730314;83;21077;-63
2021/03/05 01:42:44;;;;;;;52.25;35.40;;;;;;;3.14;79.12;98809.98;1731867;82;21163;-63
2021/03/05 01:45:15;;;;;;;59.15;37.83;;;;;;;3.14;79.25;98807.41;1762157;80;21164;-64
2021/03/05 01:47:45;;;;;;;53.42;35.68;;;;;;;3.16;79.36;98813.80;1778020;80;21432;-63
2021/03/05 01:50:19;;;;;;;62.25;36.28;;;;;;;3.18;79.29;98810.33;1731841;82;21637;-64
2021/03/05 01:52:48;;;;;;;57.20;36.42;;;;;;;3.16;79.34;98815.94;1778011;80;21052;-63
2021/03/05 01:55:16;;;;;;;53.40;35.45;;;;;;;3.15;79.38;98823.67;1762121;81;21081;-63
2021/03/05 01:57:44;;;;;;;53.48;36.30;;;;;;;3.14;79.43;98830.53;1778103;80;21539;-63
2021/03/05 02:00:14;;;;;;;56.65;36.90;;;;;;;3.13;79.57;98827.56;1731873;82;21389;-63
2021/03/05 02:02:41;;;;;;;59.15;38.53;;;;;;;3.13;79.71;98831.85;1777969;80;21574;-64
2021/03/05 02:05:11;;;;;;;52.62;36.40;;;;;;;3.15;79.77;98840.38;1730301;83;21091;-63
2021/03/05 02:07:39;;;;;;;64.17;39.83;;;;;;;3.13;79.74;98844.27;1762145;81;21090;-63
2021/03/05 02:10:11;;;;;;;58.42;38.25;;;;;;;3.14;79.85;98843.82;1778013;80;21480;-63
2021/03/05 02:12:38;;;;;;;47.15;32.25;;;;;;;3.16;79.79;98849.34;1762216;81;21374;-63
2021/03/05 02:15:08;;;;;;;52.23;35.60;;;;;;;3.18;79.79;98851.44;1777890;80;21064;-63
2021/03/05 02:17:41;;;;;;;54.53;36.93;;;;;;;3.17;79.82;98857.89;1730297;81;21066;-63
2021/03/05 02:20:18;;;;;;;54.53;37.00;;;;;;;3.14;79.93;98852.81;1778052;80;21056;-63
2021/03/05 02:23:12;;;;;;;56.73;36.80;;;;;;;3.18;79.96;98854.45;1762164;81;21066;-64
2021/03/05 02:26:05;;;;;;;56.73;37.93;;;;;;;3.18;79.95;98861.72;1731884;82;21383;-63
2021/03/05 02:29:11;;;;;;;53.23;34.95;;;;;;;3.22;79.89;98850.47;1770189;80;21127;-63
2021/03/05 02:32:06;;;;;;;52.40;35.00;;;;;;;3.27;79.68;98848.66;1751567;81;21450;-63
2021/03/05 02:34:37;;;;;;;49.83;34.10;;;;;;;3.31;79.44;98840.44;1767569;80;21135;-64
2021/03/05 02:37:09;;;;;;;55.73;36.58;;;;;;;3.30;79.41;98851.16;1717150;83;21074;-64
2021/03/05 02:40:06;;;;;;;60.55;36.25;;;;;;;3.28;79.27;98848.21;1751976;82;21380;-64
2021/03/05 02:42:53;;;;;;;53.65;37.05;;;;;;;3.20;79.24;98854.80;1722029;82;21495;-64
2021/03/05 02:45:27;;;;;;;52.90;35.38;;;;;;;3.13;79.44;98859.67;1726804;82;21161;-63
2021/03/05 02:47:59;;;;;;;48.50;34.27;;;;;;;3.11;79.56;98866.13;1767635;81;21056;-63
2021/03/05 02:50:27;;;;;;;51.15;34.75;;;;;;;3.11;79.54;98868.70;1751895;80;21066;-64
2021/03/05 02:52:59;;;;;;;57.70;36.95;;;;;;;3.08;79.65;98861.05;1697876;83;22275;-63
2021/03/05 02:55:26;;;;;;;54.53;35.68;;;;;;;3.08;79.74;98855.91;1721897;83;21075;-64
2021/03/05 02:57:57;;;;;;;55.25;37.75;;;;;;;3.08;79.73;98856.35;1697697;83;21121;-64
2021/03/05 03:00:25;;;;;;;56.23;37.98;;;;;;;3.09;79.88;98864.03;1767640;81;21540;-64
2021/03/05 03:02:53;;;;;;;53.35;35.98;;;;;;;3.13;79.82;98858.83;1767527;81;21107;-64
2021/03/05 03:05:22;;;;;;;52.38;35.88;;;;;;;3.16;79.73;98857.05;1767496;81;21361;-64
2021/03/05 03:07:51;;;;;;;51.58;35.83;;;;;;;3.20;79.62;98861.22;1767497;81;21545;-64
2021/03/05 03:10:22;;;;;;;52.25;36.53;;;;;;;3.23;79.59;98859.02;1767490;81;21044;-64
2021/03/05 03:12:53;;;;;;;55.90;36.93;;;;;;;3.27;79.46;98869.21;1767551;80;21067;-64
2021/03/05 03:15:23;;;;;;;52.20;36.03;;;;;;;3.29;79.36;98867.45;1767512;81;21127;-64
2021/03/05 03:17:52;;;;;;;51.50;37.63;;;;;;;3.32;79.30;98866.11;1767551;81;21238;-64
2021/03/05 03:20:22;;;;;;;55.52;38.90;;;;;;;3.37;79.20;98869.44;1767456;81;21501;-64
2021/03/05 03:22:49;;;;;;;55.95;37.33;;;;;;;3.35;78.95;98867.77;1767512;81;21044;-64
2021/03/05 03:25:17;;;;;;;50.78;34.95;;;;;;;3.32;78.92;98881.97;1767486;81;21064;-64
2021/03/05 03:27:46;;;;;;;52.33;36.73;;;;;;;3.30;78.91;98883.28;1767335;80;21100;-64
2021/03/05 03:30:17;;;;;;;56.65;37.60;;;;;;;3.27;79.10;98877.36;1767456;81;21372;-63
2021/03/05 03:32:45;;;;;;;54.15;37.08;;;;;;;3.28;79.08;98884.20;1767452;81;21111;-63
2021/03/05 03:35:15;;;;;;;56.75;38.42;;;;;;;3.27;79.16;98883.34;1767564;81;21540;-64
2021/03/05 03:37:43;;;;;;;56.73;38.25;;;;;;;3.27;79.15;98875.64;1767509;81;21115;-64
2021/03/05 03:40:19;;;;;;;53.40;37.93;;;;;;;3.28;79.17;98874.76;1767506;81;21104;-64
2021/03/05 03:42:48;;;;;;;52.55;36.58;;;;;;;3.30;79.07;98876.86;1767527;80;21457;-64
2021/03/05 03:45:19;;;;;;;53.10;37.35;;;;;;;3.29;79.02;98879.02;1767435;81;21061;-64
2021/03/05 03:47:47;;;;;;;57.33;38.58;;;;;;;3.29;79.08;98870.47;1767485;80;21040;-64
2021/03/05 03:50:35;;;;;;;58.28;38.38;;;;;;;3.29;79.07;98874.32;1767498;80;21139;-64
2021/03/05 03:53:08;;;;;;;56.23;37.50;;;;;;;3.29;79.10;98876.45;1767223;81;21143;-63
2021/03/05 03:55:36;;;;;;;58.05;39.10;;;;;;;3.30;79.15;98877.30;1767477;81;21436;-63
2021/03/05 03:58:05;;;;;;;56.33;36.77;;;;;;;3.31;79.04;98876.42;1767411;80;21151;-63
2021/03/05 04:00:33;;;;;;;53.35;37.50;;;;;;;3.32;78.90;98871.69;1767443;81;21111;-64
2021/03/05 04:03:05;;;;;;;58.17;39.40;;;;;;;3.33;78.81;98881.09;1767495;80;21152;-63
2021/03/05 04:05:37;;;;;;;56.53;37.73;;;;;;;3.30;78.91;98874.30;1767480;81;21108;-63
2021/03/05 04:08:06;;;;;;;61.18;40.30;;;;;;;3.30;78.94;98874.30;1767698;81;21371;-63
2021/03/05 04:10:35;;;;;;;53.02;36.93;;;;;;;3.32;78.89;98878.96;1720000;81;21124;-63
2021/03/05 04:13:04;;;;;;;62.50;38.92;;;;;;;3.32;78.94;98872.97;1767469;81;21115;-63
2021/03/05 04:15:32;;;;;;;59.63;39.38;;;;;;;3.33;78.88;98867.80;1767448;81;21112;-63
2021/03/05 04:18:00;;;;;;;57.60;38.83;;;;;;;3.34;78.76;98873.80;1767483;81;21493;-63
2021/03/05 04:20:28;;;;;;;58.20;38.83;;;;;;;3.33;78.73;98859.25;1743979;81;21249;-63
2021/03/05 04:22:56;;;;;;;54.45;38.42;;;;;;;3.34;78.71;98857.09;1767423;81;21089;-63
2021/03/05 04:25:24;;;;;;;56.40;37.85;;;;;;;3.32;78.73;98851.97;1767469;81;21127;-63
2021/03/05 04:27:52;;;;;;;60.03;38.00;;;;;;;3.33;78.69;98852.38;1767289;79;21259;-63
2021/03/05 04:30:21;;;;;;;57.17;37.80;;;;;;;3.31;78.62;98857.99;1767571;81;21052;-63
2021/03/05 04:32:49;;;;;;;58.02;39.85;;;;;;;3.26;78.60;98860.25;1767502;79;21367;-63
2021/03/05 04:35:18;;;;;;;59.27;38.05;;;;;;;3.20;78.69;98861.22;1767449;80;21518;-63
2021/03/05 04:37:46;;;;;;;53.78;36.35;;;;;;;3.17;78.84;98863.88;1767468;81;21052;-63
2021/03/05 04:40:14;;;;;;;57.45;37.85;;;;;;;3.13;78.83;98869.11;1767445;81;21114;-63
2021/03/05 04:42:42;;;;;;;60.40;39.13;;;;;;;3.07;79.01;98873.93;1767445;81;21186;-63
2021/03/05 04:45:11;;;;;;;65.50;41.53;;;;;;;3.00;79.21;98875.77;1767436;81;21194;-63
2021/03/05 04:47:38;;;;;;;61.98;39.80;;;;;;;2.96;79.39;98873.31;1767388;81;21080;-63
2021/03/05 04:50:09;;;;;;;61.35;39.40;;;;;;;2.94;79.52;98877.64;1767437;81;21057;-63
2021/03/05 04:52:36;;;;;;;56.95;37.45;;;;;;;2.91;79.49;98873.84;1767462;81;21076;-64
2021/03/05 04:55:07;;;;;;;60.85;39.00;;;;;;;2.88;79.61;98877.75;1767459;81;21139;-63
2021/03/05 04:57:35;;;;;;;54.70;36.53;;;;;;;2.86;79.77;98871.36;1767459;81;21503;-63
2021/03/05 05:00:05;;;;;;;64.60;37.75;;;;;;;2.89;79.94;98870.45;1767374;81;21078;-64
2021/03/05 05:02:33;;;;;;;57.65;37.83;;;;;;;2.90;79.83;98870.42;1767554;81;21544;-63
2021/03/05 05:05:02;;;;;;;56.83;37.95;;;;;;;2.93;79.82;98866.52;1767537;81;21155;-64
2021/03/05 05:07:30;;;;;;;54.23;37.30;;;;;;;2.96;79.74;98872.87;1767432;81;21060;-63
2021/03/05 05:09:58;;;;;;;55.70;37.80;;;;;;;2.97;79.59;98877.14;1767416;81;21372;-64
2021/03/05 05:12:25;;;;;;;54.13;35.17;;;;;;;2.94;79.48;98873.34;1767381;81;21949;-64
2021/03/05 05:14:54;;;;;;;55.05;35.45;;;;;;;2.92;79.54;98888.37;1767418;81;21139;-63
2021/03/05 05:17:22;;;;;;;55.88;36.85;;;;;;;2.92;79.53;98894.36;1767427;81;21175;-63
2021/03/05 05:19:50;;;;;;;58.13;37.88;;;;;;;2.92;79.70;98893.52;1767489;80;21056;-63
2021/03/05 05:22:18;;;;;;;56.25;36.48;;;;;;;2.94;79.70;98897.75;1767443;81;21368;-62
2021/03/05 05:24:47;;;;;;;61.10;37.78;;;;;;;2.96;79.74;98893.43;1767402;81;21155;-63
2021/03/05 05:27:15;;;;;;;61.68;40.48;;;;;;;3.00;79.75;98892.47;1767455;81;21107;-63
2021/03/05 05:29:43;;;;;;;61.90;37.83;;;;;;;3.05;79.80;98895.80;1767334;80;21151;-63
2021/03/05 05:32:12;;;;;;;58.02;37.23;;;;;;;3.08;79.57;98898.31;1767512;81;21147;-63
2021/03/05 05:34:40;;;;;;;55.80;37.15;;;;;;;3.11;79.49;98889.26;1767599;81;21457;-63
2021/03/05 05:37:08;;;;;;;59.77;38.33;;;;;;;3.16;79.48;98890.89;1767478;81;21084;-63
2021/03/05 05:39:38;;;;;;;62.70;40.58;;;;;;;3.20;79.43;98889.95;1767244;81;21071;-63
2021/03/05 05:42:07;;;;;;;65.87;40.50;;;;;;;3.25;79.23;98891.53;1767669;81;21115;-64
2021/03/05 05:44:35;;;;;;;63.40;41.35;;;;;;;3.27;79.13;98894.91;1767575;81;21096;-64
2021/03/05 05:47:04;;;;;;;58.25;40.03;;;;;;;3.29;79.18;98879.46;1767513;81;21493;-65
2021/03/05 05:49:32;;;;;;;60.03;39.45;;;;;;;3.33;79.00;98892.22;1767428;81;21202;-65
2021/03/05 05:52:00;;;;;;;58.45;37.38;;;;;;;3.41;78.87;98890.31;1767513;81;21061;-65
2021/03/05 05:54:28;;;;;;;56.20;36.33;;;;;;;3.50;78.63;98891.00;1767546;81;21052;-63
2021/03/05 05:56:56;;;;;;;55.95;36.65;;;;;;;3.56;78.52;98891.72;1767496;81;21461;-64
2021/03/05 05:59:26;;;;;;;65.12;40.83;;;;;;;3.63;78.20;98900.12;1767502;81;21425;-64
2021/03/05 06:01:54;;;;;;;80.65;46.95;;;;;;;3.67;77.94;98896.61;1767501;81;21137;-64
2021/03/05 06:04:23;;;;;;;60.78;41.25;;;;;;;3.70;77.72;98896.55;1767362;81;21143;-64
2021/03/05 06:06:52;;;;;;;55.28;37.85;;;;;;;3.74;77.48;98895.59;1767553;81;21162;-64
2021/03/05 06:09:20;;;;;;;50.20;34.55;;;;;;;3.74;77.36;98909.74;1767560;81;21060;-64
2021/03/05 06:11:50;;;;;;;53.10;33.73;;;;;;;3.75;77.19;98903.72;1767518;81;22379;-64
2021/03/05 06:14:18;;;;;;;53.05;36.10;;;;;;;3.75;77.11;98915.30;1767471;81;21068;-63
2021/03/05 06:16:57;;;;;;;59.70;35.98;;;;;;;3.74;77.19;98905.88;1767428;81;21065;-65
2021/03/05 06:19:29;;;;;;;56.28;37.13;;;;;;;3.76;77.24;98917.83;1767489;81;21549;-65
2021/03/05 06:21:58;;;;;;;63.10;41.88;;;;;;;3.72;77.66;98926.49;1767640;81;21059;-64
2021/03/05 06:24:29;;;;;;;94.03;61.58;;;;;;;3.72;77.66;98926.49;1767491;81;21131;-64
2021/03/05 06:27:00;;;;;;;100.18;69.47;;;;;;;3.74;77.25;98929.03;1767449;80;21488;-64
2021/03/05 06:29:43;;;;;;;67.75;43.70;;;;;;;3.79;77.38;98928.50;1767287;80;21144;-64
2021/03/05 06:32:14;;;;;;;58.38;37.03;;;;;;;3.91;77.17;98920.48;1767468;81;21139;-63
2021/03/05 06:34:52;;;;;;;55.15;35.95;;;;;;;3.98;76.65;98940.05;1767532;81;21559;-65
2021/03/05 06:37:25;;;;;;;56.58;37.20;;;;;;;4.04;76.53;98933.89;1767459;81;21369;-65
2021/03/05 06:40:03;;;;;;;49.33;32.80;;;;;;;4.10;76.23;98931.19;1767703;81;21084;-64
2021/03/05 06:42:30;;;;;;;48.80;31.73;;;;;;;4.12;75.83;98922.55;1767465;81;21052;-64
2021/03/05 06:45:04;;;;;;;49.83;32.33;;;;;;;4.07;75.35;98911.52;1719677;81;21080;-63
2021/03/05 06:47:32;;;;;;;43.00;30.05;;;;;;;4.02;75.20;98903.48;1766692;80;21179;-64
2021/03/05 06:50:00;;;;;;;49.15;29.52;;;;;;;3.98;75.31;98910.47;1683505;81;22245;-66
2021/03/05 06:52:34;;;;;;;43.45;27.85;;;;;;;4.00;74.99;98916.83;1652746;85;21190;-64
2021/03/05 06:55:02;;;;;;;41.68;27.37;;;;;;;4.04;74.58;98919.73;1674724;85;21162;-64
2021/03/05 06:57:30;;;;;;;39.45;26.00;;;;;;;4.07;74.17;98921.80;1674792;85;21599;-64
2021/03/05 06:59:59;;;;;;;39.33;25.45;;;;;;;4.07;72.93;98919.23;1674848;85;21492;-63
2021/03/05 07:02:31;;;;;;;38.75;25.88;;;;;;;4.05;72.16;98931.73;1655622;85;21382;-64
2021/03/05 07:04:59;;;;;;;40.70;24.85;;;;;;;3.99;71.12;98921.16;1674673;85;21079;-64
2021/03/05 07:07:28;;;;;;;35.40;21.60;;;;;;;3.94;71.43;98930.70;1674541;85;21584;-64
2021/03/05 07:10:00;;;;;;;35.45;23.45;;;;;;;3.92;70.82;98933.75;1674686;85;21090;-64
2021/03/05 07:12:31;;;;;;;33.25;21.48;;;;;;;3.95;71.20;98932.84;1674655;84;21083;-65
2021/03/05 07:15:22;;;;;;;35.20;22.25;;;;;;;4.01;70.17;98933.52;1674657;84;22150;-64
2021/03/05 07:18:01;;;;;;;33.25;21.33;;;;;;;4.21;70.22;98928.34;1890023;76;22705;-64
2021/03/05 07:20:29;;;;;;;32.08;20.72;;;;;;;4.29;69.45;98935.44;1860108;77;21128;-65
2021/03/05 07:22:58;;;;;;;32.25;19.62;;;;;;;4.41;69.27;98935.97;1859959;77;22098;-64
2021/03/05 07:25:27;;;;;;;28.60;20.05;;;;;;;4.53;68.36;98918.53;1828006;77;21147;-65
2021/03/05 07:27:56;;;;;;;30.23;18.55;;;;;;;4.59;67.11;98908.09;1860969;77;21065;-64
2021/03/05 07:30:25;;;;;;;25.72;18.77;;;;;;;4.62;66.46;98893.37;1860868;77;21112;-64
2021/03/05 07:32:53;;;;;;;32.78;19.73;;;;;;;4.67;66.75;98897.11;1860919;77;21006;-63
2021/03/05 07:35:30;;;;;;;26.60;17.52;;;;;;;4.72;66.80;98906.42;1860915;77;21450;-64
2021/03/05 07:38:00;;;;;;;28.05;18.82;;;;;;;4.76;66.32;98931.22;1829557;77;20887;-64
2021/03/05 07:40:28;;;;;;;34.10;23.00;;;;;;;4.76;65.76;98929.09;1860912;77;20934;-64
2021/03/05 07:42:58;;;;;;;31.15;21.57;;;;;;;4.71;65.76;98927.06;1860743;77;21112;-64
2021/03/05 07:45:26;;;;;;;31.33;19.23;;;;;;;4.66;65.57;98927.63;1860677;77;21131;-64
2021/03/05 07:47:54;;;;;;;31.85;18.73;;;;;;;4.55;65.71;98938.66;1860829;77;21143;-64
2021/03/05 07:50:25;;;;;;;31.02;20.35;;;;;;;4.42;66.10;98936.81;1828322;77;21164;-64
2021/03/05 07:53:00;;;;;;;29.02;18.55;;;;;;;4.31;66.30;98933.67;1860795;77;21144;-64
2021/03/05 07:55:38;;;;;;;29.87;18.65;;;;;;;4.21;66.67;98925.32;1851505;77;21090;-63
2021/03/05 07:58:06;;;;;;;27.45;17.17;;;;;;;4.15;66.86;98935.78;1827157;78;21132;-64
2021/03/05 08:00:52;;;;;;;31.27;19.15;;;;;;;4.11;67.18;98937.58;1827084;78;21185;-65
2021/03/05 08:03:25;;;;;;;28.57;17.73;;;;;;;4.06;67.30;98941.98;1827054;78;21517;-65
2021/03/05 08:05:59;;;;;;;;;;;;;;;3.99;67.31;98946.89;1829744;78;21168;-65
2021/03/05 08:08:29;;;;;;;27.85;16.90;;;;;;;3.94;67.37;98952.58;1826815;78;20488;-64
2021/03/05 08:10:59;;;;;;;26.87;17.37;;;;;;;3.88;67.26;98941.57;1826307;78;21194;-66
2021/03/05 08:13:51;;;;;;;31.65;19.62;;;;;;;3.79;67.35;98932.36;1826358;78;21358;-65
2021/03/05 08:16:33;;;;;;;27.85;17.07;;;;;;;3.74;67.85;98929.88;1826543;78;21656;-64
2021/03/05 08:19:09;;;;;;;24.57;16.60;;;;;;;3.72;68.06;98949.64;1826664;78;21053;-67
2021/03/05 08:21:57;;;;;;;28.05;18.07;;;;;;;3.67;68.35;98948.04;1826623;78;21138;-63
2021/03/05 08:24:30;;;;;;;28.47;17.42;;;;;;;3.63;68.46;98957.98;1827216;78;21100;-65
2021/03/05 08:27:01;;;;;;;25.88;16.35;;;;;;;3.59;68.54;98963.66;1827167;78;21544;-65
2021/03/05 08:30:04;;;;;;;29.25;17.65;;;;;;;3.58;68.54;98973.53;1826484;78;21489;-65
2021/03/05 08:32:38;;;;;;;25.82;14.65;;;;;;;3.54;68.60;98975.75;1826689;78;21080;-63
2021/03/05 08:35:12;;;;;;;22.90;15.43;;;;;;;3.52;68.58;98966.38;1826610;78;21606;-64
2021/03/05 08:37:46;;;;;;;23.67;15.85;;;;;;;3.50;68.58;98969.42;1826603;78;21474;-63
2021/03/05 08:40:25;;;;;;;31.40;16.52;;;;;;;3.45;68.61;98976.78;1826181;78;22275;-65
2021/03/05 08:42:56;;;;;;;27.22;16.48;;;;;;;3.43;68.95;98980.25;1826402;78;21092;-63
2021/03/05 08:45:32;;;;;;;26.00;16.02;;;;;;;3.44;69.13;98975.09;1826779;78;21563;-64
2021/03/05 08:48:02;;;;;;;25.97;16.15;;;;;;;3.47;69.21;98974.18;1826643;78;21150;-65
2021/03/05 08:50:37;;;;;;;26.12;15.45;;;;;;;3.46;69.37;98972.05;1826466;78;21064;-65
2021/03/05 08:53:26;;;;;;;25.50;14.43;;;;;;;3.49;69.51;98971.58;1826455;78;21195;-65
2021/03/05 08:55:54;;;;;;;23.45;14.93;;;;;;;3.55;69.04;98972.75;1760187;81;21069;-65
2021/03/05 08:58:22;;;;;;;25.20;14.95;;;;;;;3.55;69.04;98966.31;1759451;80;21546;-66
2021/03/05 09:00:51;;;;;;;25.75;15.90;;;;;;;3.56;69.07;98973.16;1759389;81;21153;-64
2021/03/05 09:03:20;;;;;;;24.18;14.87;;;;;;;3.56;68.99;98970.58;1759315;81;21145;-66
2021/03/05 09:05:50;;;;;;;26.62;15.40;;;;;;;3.54;68.84;98975.75;1759321;81;21221;-65
2021/03/05 09:08:24;;;;;;;27.55;16.95;;;;;;;3.50;69.09;98979.27;1759303;81;21180;-65
2021/03/05 09:11:04;;;;;;;24.92;15.05;;;;;;;3.47;69.36;98975.47;1759336;80;21153;-64
2021/03/05 09:13:35;;;;;;;23.67;15.38;;;;;;;3.46;69.55;98976.34;1759388;81;21120;-65
2021/03/05 09:16:05;;;;;;;20.97;13.72;;;;;;;3.43;69.73;98969.97;1759431;81;21184;-64
2021/03/05 09:18:37;;;;;;;25.45;16.73;;;;;;;3.40;70.07;98969.59;1759364;81;21374;-64
2021/03/05 09:21:09;;;;;;;31.82;19.55;;;;;;;3.41;70.35;98972.57;1759532;81;21515;-65
2021/03/05 09:23:40;;;;;;;31.02;19.05;;;;;;;3.45;70.71;98972.08;1759493;80;21049;-66
2021/03/05 09:26:15;;;;;;;27.27;17.50;;;;;;;3.48;70.69;98981.02;1759470;81;21062;-65
2021/03/05 09:28:49;;;;;;;26.73;16.67;;;;;;;3.50;70.86;98977.98;1759438;81;21498;-66
2021/03/05 09:31:23;;;;;;;25.25;16.15;;;;;;;3.50;70.97;98981.84;1759435;81;21363;-72
2021/03/05 09:33:52;;;;;;;21.95;15.08;;;;;;;3.49;71.22;98989.58;1759340;81;21558;-63
2021/03/05 09:36:21;;;;;;;23.18;15.88;;;;;;;3.48;71.47;98990.02;1759249;81;21201;-73
2021/03/05 09:39:00;;;;;;;21.12;14.20;;;;;;;3.46;71.75;98991.77;1759364;81;21137;-63
2021/03/05 09:41:31;;;;;;;21.95;14.98;;;;;;;3.41;72.00;98992.29;1758289;81;21165;-63
2021/03/05 09:44:05;;;;;;;28.00;17.12;;;;;;;3.35;72.32;98997.14;1758926;81;21370;-65
2021/03/05 09:46:39;;;;;;;27.65;16.75;;;;;;;3.34;72.67;98996.73;1758840;81;21085;-66
2021/03/05 09:49:29;;;;;;;28.12;16.77;;;;;;;3.37;73.04;99009.96;1753883;81;21058;-65
2021/03/05 09:52:42;;;;;;;26.90;15.60;;;;;;;3.42;73.10;99001.70;1747888;81;21127;-62
2021/03/05 09:55:24;;;;;;;40.78;24.15;;;;;;;3.46;73.10;99004.18;1710360;81;21160;-63
2021/03/05 09:58:10;;;;;;;24.98;15.50;;;;;;;3.54;72.97;99008.33;1861039;76;22761;-62
2021/03/05 10:00:38;;;;;;;23.32;15.13;;;;;;;3.52;73.03;99005.79;1818292;77;21063;-60
2021/03/05 10:03:16;;;;;;;24.18;14.95;;;;;;;3.53;72.61;99008.77;1827282;77;21325;-60
2021/03/05 10:05:46;;;;;;;33.88;24.10;;;;;;;3.53;72.35;99006.20;1820609;77;21005;-63
2021/03/05 10:08:26;;;;;;;45.00;26.45;;;;;;;3.49;72.62;99008.42;1817186;77;21460;-68
2021/03/05 10:11:11;;;;;;;57.60;37.03;;;;;;;3.52;72.75;99001.09;1816464;79;21066;-67
2021/03/05 10:13:55;;;;;;;24.12;14.73;;;;;;;3.59;72.95;99007.38;1817710;78;21566;-66
2021/03/05 10:16:39;;;;;;;25.57;16.12;;;;;;;3.65;72.92;99003.36;1816545;77;21188;-67
2021/03/05 10:19:18;;;;;;;23.38;15.38;;;;;;;3.69;72.90;99003.71;1816393;79;20901;-66
2021/03/05 10:21:54;;;;;;;31.62;20.12;;;;;;;3.68;72.93;99003.30;1787806;79;21139;-67
2021/03/05 10:24:27;;;;;;;34.58;20.20;;;;;;;3.69;73.19;98997.28;1791062;77;21146;-68
2021/03/05 10:27:19;;;;;;;33.90;22.20;;;;;;;3.71;73.40;99004.97;1816459;79;21134;-68
2021/03/05 10:29:57;;;;;;;23.45;14.28;;;;;;;3.69;73.33;99006.28;1816568;79;21180;-67
2021/03/05 10:32:32;;;;;;;23.40;14.65;;;;;;;3.76;73.44;99011.72;1816548;79;21115;-67
2021/03/05 10:35:09;;;;;;;29.18;18.75;;;;;;;3.86;73.29;99003.34;1816337;79;21107;-66
2021/03/05 10:37:33;;;;;;;28.42;19.67;;;;;;;3.98;73.17;99000.52;1819736;78;21203;-66
2021/03/05 10:40:02;;;;;;;20.40;13.20;;;;;;;4.08;73.06;99007.58;1779604;79;21166;-67
2021/03/05 10:42:30;;;;;;;23.65;14.33;;;;;;;4.18;72.81;99006.94;1820220;78;21484;-66
2021/03/05 10:44:57;;;;;;;22.62;15.05;;;;;;;4.26;72.49;99014.02;1814996;79;21154;-68
2021/03/05 10:47:25;;;;;;;24.67;14.75;;;;;;;4.30;72.19;99006.20;1815772;79;21091;-66
2021/03/05 10:49:53;;;;;;;22.05;13.80;;;;;;;4.34;72.21;99005.25;1821203;77;21099;-68
2021/03/05 10:52:23;;;;;;;31.23;20.50;;;;;;;4.43;71.99;99000.31;1828408;77;21111;-66
2021/03/05 10:54:54;;;;;;;33.15;21.77;;;;;;;4.50;71.72;98998.00;1848496;77;21154;-66
2021/03/05 10:57:22;;;;;;;20.72;14.20;;;;;;;4.55;71.53;99000.03;1849288;77;21155;-67
2021/03/05 10:59:50;;;;;;;18.32;13.03;;;;;;;4.60;71.61;99002.47;1824852;77;21051;-65
2021/03/05 11:02:19;;;;;;;22.50;14.73;;;;;;;4.60;71.20;99007.17;1815918;78;21382;-67
2021/03/05 11:04:47;;;;;;;33.13;21.80;;;;;;;4.55;70.69;99006.47;1816103;79;21043;-67
2021/03/05 11:07:15;;;;;;;24.23;18.60;;;;;;;4.46;70.86;99002.81;1816352;79;21274;-67
2021/03/05 11:09:44;;;;;;;21.93;15.70;;;;;;;4.44;70.99;99008.00;1815819;78;21108;-67
2021/03/05 11:12:13;;;;;;;21.68;14.18;;;;;;;4.45;71.17;99006.27;1815628;79;21552;-67
2021/03/05 11:14:41;;;;;;;30.30;21.70;;;;;;;4.48;71.16;99000.61;1815781;79;21555;-67
2021/03/05 11:17:09;;;;;;;26.55;17.42;;;;;;;4.52;71.39;99000.53;1815793;79;21084;-66
2021/03/05 11:19:38;;;;;;;22.35;16.23;;;;;;;4.56;71.72;99004.30;1815851;79;21191;-66
2021/03/05 11:22:07;;;;;;;35.17;22.37;;;;;;;4.55;71.71;99003.05;1815812;78;21080;-66
2021/03/05 11:24:35;;;;;;;23.70;13.78;;;;;;;4.51;72.02;99007.42;1815495;79;21063;-63
2021/03/05 11:27:05;;;;;;;28.32;17.00;;;;;;;4.50;71.88;99005.28;1815476;79;21611;-67
2021/03/05 11:29:32;;;;;;;31.00;17.50;;;;;;;4.43;72.02;99007.59;1815416;79;21123;-65
2021/03/05 11:32:01;;;;;;;20.97;13.78;;;;;;;4.39;72.52;99004.71;1815810;79;21368;-65
2021/03/05 11:34:30;;;;;;;20.32;13.20;;;;;;;4.36;72.41;99007.80;1815339;79;21060;-66
2021/03/05 11:36:58;;;;;;;23.38;16.15;;;;;;;4.31;72.20;99013.48;1814676;79;21135;-65
2021/03/05 11:39:26;;;;;;;28.62;19.62;;;;;;;4.26;72.19;99002.00;1815829;78;21096;-68
2021/03/05 11:41:54;;;;;;;21.57;14.23;;;;;;;4.22;72.53;99005.96;1786648;79;21131;-66
2021/03/05 11:44:22;;;;;;;26.70;17.95;;;;;;;4.20;72.59;99008.56;1815828;79;21190;-66